Time;durP1;ratioP1;P1;durP2;ratioP2;P2;SDS_P1;SDS_P2;PMS_P1;PMS_P2;Temp;Humidity;BMP_temperature;BMP_pressure;BME280_temperature;BME280_humidity;BME280_pressure;Samples;Min_cycle;Max_cycle;Signal;HPM_P1;HPM_P2
2023/08/20 00:01:56;;;;;;;;;;;;;;;27.03;61.92;101039.03;6173723;23;19912;-81
2023/08/20 00:04:42;;;;;;;;;;;;;;;27.00;61.92;101033.50;6195726;23;19939;-82
2023/08/20 00:07:27;;;;;;;;;;;;;;;26.96;61.85;101027.97;6195850;23;19912;-81
2023/08/20 00:10:11;;;;;;;;;;;;;;;26.94;62.06;101019.22;6174545;23;20336;-81
2023/08/20 00:12:56;;;;;;;;;;;;;;;26.91;62.00;101020.06;6153420;23;19912;-81
2023/08/20 00:15:40;;;;;;;;;;;;;;;26.77;62.89;101025.78;6195419;23;19924;-81
2023/08/20 00:18:25;;;;;;;;;;;;;;;26.86;62.34;101025.28;6177208;23;19916;-83
2023/08/20 00:21:09;;;;;;;;;;;;;;;26.83;62.69;101026.91;6176165;23;19912;-81
2023/08/20 00:23:54;;;;;;;;;;;;;;;26.91;62.33;101019.25;6155740;23;20340;-80
2023/08/20 00:26:39;;;;;;;;;;;;;;;26.93;62.25;101026.00;6155313;23;19912;-81
2023/08/20 00:29:25;;;;;;;;;;;;;;;26.88;62.12;101026.47;6154257;23;19916;-81
2023/08/20 00:32:09;;;;;;;;;;;;;;;26.86;62.55;101022.50;6196728;23;19913;-81
2023/08/20 00:34:54;;;;;;;;;;;;;;;26.81;62.33;101026.53;6174120;23;20255;-81
2023/08/20 00:37:38;;;;;;;;;;;;;;;26.71;63.02;101027.47;6173983;23;19912;-80
2023/08/20 00:40:23;;;;;;;;;;;;;;;26.77;62.57;101020.19;6173569;23;19912;-80
2023/08/20 00:43:07;;;;;;;;;;;;;;;26.71;62.58;101021.88;6189798;23;19913;-80
2023/08/20 00:45:52;;;;;;;;;;;;;;;26.76;62.62;101024.22;6153722;23;19912;-80
2023/08/20 00:48:37;;;;;;;;;;;;;;;26.77;62.73;101020.19;6174294;23;20336;-80
2023/08/20 00:51:22;;;;;;;;;;;;;;;26.83;62.30;101019.31;6200516;23;19912;-83
2023/08/20 00:54:06;;;;;;;;;;;;;;;26.82;62.24;101014.94;6155831;23;19923;-82
2023/08/20 00:56:51;;;;;;;;;;;;;;;26.81;62.37;101020.97;6177454;23;19916;-83
2023/08/20 00:59:36;;;;;;;;;;;;;;;26.82;62.16;101019.72;6177621;23;19916;-83
2023/08/20 01:02:21;;;;;;;;;;;;;;;26.81;62.32;101032.13;6176101;23;20340;-82
2023/08/20 01:05:08;;;;;;;;;;;;;;;26.79;62.14;101029.75;6154797;23;20256;-83
2023/08/20 01:07:52;;;;;;;;;;;;;;;26.81;62.12;101032.13;6155924;23;19917;-83
2023/08/20 01:10:49;;;;;;;;;;;;;;;26.79;62.15;101031.75;6178873;23;19916;-84
2023/08/20 01:13:33;;;;;;;;;;;;;;;26.77;62.24;101028.56;6159893;23;20263;-82
2023/08/20 01:16:17;;;;;;;;;;;;;;;26.79;61.74;101029.75;6178412;23;19916;-81
2023/08/20 01:19:02;;;;;;;;;;;;;;;26.78;61.84;101025.38;6183535;23;19912;-81
2023/08/20 01:21:54;;;;;;;;;;;;;;;26.77;62.19;101039.72;6204043;23;19912;-82
2023/08/20 01:24:58;;;;;;;;;;;;;;;26.76;62.24;101041.75;6218958;23;19920;-82
2023/08/20 01:27:52;;;;;;;;;;;;;;;26.71;62.00;101039.44;6182480;23;19912;-82
2023/08/20 01:30:37;;;;;;;;;;;;;;;26.73;61.91;101036.19;6204738;23;19912;-81
2023/08/20 01:33:21;;;;;;;;;;;;;;;26.74;61.79;101032.22;6198039;23;19912;-81
2023/08/20 01:36:09;;;;;;;;;;;;;;;26.70;61.80;101035.03;6160699;23;19916;-81
2023/08/20 01:38:53;;;;;;;;;;;;;;;26.70;61.84;101037.84;6158987;23;19912;-81
2023/08/20 01:41:38;;;;;;;;;;;;;;;26.65;62.02;101031.94;6202087;23;19912;-81
2023/08/20 01:44:22;;;;;;;;;;;;;;;26.59;62.07;101033.59;6180303;23;19920;-81
2023/08/20 01:47:07;;;;;;;;;;;;;;;26.60;62.09;101037.97;6199986;23;19916;-82
2023/08/20 01:49:52;;;;;;;;;;;;;;;26.61;62.14;101037.56;6180775;23;19912;-82
2023/08/20 01:52:36;;;;;;;;;;;;;;;26.56;62.40;101037.22;6201699;23;19912;-81
2023/08/20 01:55:20;;;;;;;;;;;;;;;26.13;63.83;101042.44;6180169;23;19920;-81
2023/08/20 01:58:05;;;;;;;;;;;;;;;25.96;64.76;101041.38;6178485;23;19912;-82
2023/08/20 02:00:49;;;;;;;;;;;;;;;25.99;64.76;101048.94;6180392;23;19912;-79
2023/08/20 02:03:35;;;;;;;;;;;;;;;25.96;64.56;101052.53;6159044;23;19912;-81
2023/08/20 02:06:19;;;;;;;;;;;;;;;26.02;64.63;101036.94;6160975;23;20317;-81
2023/08/20 02:09:04;;;;;;;;;;;;;;;26.02;64.69;101036.94;6198715;23;20283;-84
2023/08/20 02:11:48;;;;;;;;;;;;;;;26.02;64.05;101039.75;6178233;23;19916;-81
2023/08/20 02:14:34;;;;;;;;;;;;;;;26.14;64.01;101044.81;6160122;23;19921;-81
2023/08/20 02:17:19;;;;;;;;;;;;;;;26.26;63.68;101041.50;6180886;23;19912;-81
2023/08/20 02:20:04;;;;;;;;;;;;;;;26.29;62.91;101043.50;6198656;23;19916;-81
2023/08/20 02:22:49;;;;;;;;;;;;;;;26.17;63.90;101040.38;6201877;23;20251;-81
2023/08/20 02:25:34;;;;;;;;;;;;;;;25.99;64.20;101037.78;6161146;23;19916;-81
2023/08/20 02:28:18;;;;;;;;;;;;;;;25.95;63.76;101037.03;6182694;23;19915;-81
2023/08/20 02:31:06;;;;;;;;;;;;;;;25.97;64.33;101042.97;6157741;23;19913;-81
2023/08/20 02:33:50;;;;;;;;;;;;;;;25.93;64.49;101033.84;6195425;23;19916;-81
2023/08/20 02:36:34;;;;;;;;;;;;;;;25.70;64.95;101044.81;6203525;23;19916;-81
2023/08/20 02:39:20;;;;;;;;;;;;;;;25.63;65.35;101042.88;6181523;23;19920;-81
2023/08/20 02:42:05;;;;;;;;;;;;;;;25.62;65.56;101046.84;6204450;23;19934;-81
2023/08/20 02:44:49;;;;;;;;;;;;;;;25.42;65.94;101041.00;6181983;23;19908;-82
2023/08/20 02:47:33;;;;;;;;;;;;;;;25.34;66.54;101044.25;6180268;23;19916;-81
2023/08/20 02:50:18;;;;;;;;;;;;;;;25.48;66.21;101047.72;6204700;23;19912;-81
2023/08/20 02:53:03;;;;;;;;;;;;;;;25.56;65.44;101051.28;6203061;23;19912;-81
2023/08/20 02:55:48;;;;;;;;;;;;;;;25.64;65.26;101049.25;6181029;23;19916;-81
2023/08/20 02:58:32;;;;;;;;;;;;;;;25.45;65.63;101048.53;6181083;23;19912;-82
2023/08/20 03:01:26;;;;;;;;;;;;;;;25.55;65.14;101053.25;6181841;23;19912;-81
2023/08/20 03:04:12;;;;;;;;;;;;;;;25.55;65.34;101053.25;6180418;23;20355;-81
2023/08/20 03:06:57;;;;;;;;;;;;;;;25.39;65.83;101052.19;6202021;23;20251;-81
2023/08/20 03:09:41;;;;;;;;;;;;;;;25.28;66.05;101055.03;6200682;23;19916;-81
2023/08/20 03:12:25;;;;;;;;;;;;;;;25.21;66.28;101055.06;6178458;23;19912;-81
2023/08/20 03:15:10;;;;;;;;;;;;;;;25.01;67.22;101051.19;6198260;23;19920;-81
2023/08/20 03:17:54;;;;;;;;;;;;;;;25.12;67.54;101046.38;6196825;23;19908;-82
2023/08/20 03:20:38;;;;;;;;;;;;;;;24.96;68.14;101048.84;6154330;23;19912;-81
2023/08/20 03:23:23;;;;;;;;;;;;;;;24.96;67.63;101052.41;6175129;23;19912;-81
2023/08/20 03:26:08;;;;;;;;;;;;;;;24.89;68.17;101049.66;6199323;23;19912;-82
2023/08/20 03:28:53;;;;;;;;;;;;;;;25.00;67.55;101052.38;6154070;23;19912;-81
2023/08/20 03:31:38;;;;;;;;;;;;;;;24.98;68.00;101046.44;6195988;23;20336;-81
2023/08/20 03:34:23;;;;;;;;;;;;;;;25.16;67.45;101052.69;6153114;23;19912;-82
2023/08/20 03:37:07;;;;;;;;;;;;;;;25.49;66.24;101052.09;6177070;23;19912;-81
2023/08/20 03:39:53;;;;;;;;;;;;;;;25.51;65.79;101051.69;6176963;23;20248;-81
2023/08/20 03:42:38;;;;;;;;;;;;;;;25.34;66.42;101053.41;6155740;23;19912;-81
2023/08/20 03:45:23;;;;;;;;;;;;;;;25.46;66.23;101055.69;6177197;23;19913;-82
2023/08/20 03:48:07;;;;;;;;;;;;;;;25.24;66.03;101048.69;6198817;23;19912;-81
2023/08/20 03:50:52;;;;;;;;;;;;;;;24.89;67.83;101044.09;6153798;23;19913;-81
2023/08/20 03:53:36;;;;;;;;;;;;;;;24.90;67.37;101044.88;6194884;23;20336;-82
2023/08/20 03:56:20;;;;;;;;;;;;;;;24.64;68.91;101049.72;6173978;23;19924;-83
2023/08/20 03:59:05;;;;;;;;;;;;;;;24.57;69.29;101048.97;6195540;23;19912;-82
2023/08/20 04:01:49;;;;;;;;;;;;;;;24.94;68.23;101048.47;6197570;23;19912;-82
2023/08/20 04:04:34;;;;;;;;;;;;;;;25.25;67.11;101047.47;6195874;23;19912;-81
2023/08/20 04:07:18;;;;;;;;;;;;;;;25.31;66.32;101053.41;6196597;23;19912;-82
2023/08/20 04:10:03;;;;;;;;;;;;;;;25.10;66.85;101051.53;6196969;23;19912;-82
2023/08/20 04:12:47;;;;;;;;;;;;;;;25.10;66.81;101048.75;6196096;23;19912;-82
2023/08/20 04:15:32;;;;;;;;;;;;;;;25.06;66.93;101054.34;6194296;23;19920;-82
2023/08/20 04:18:17;;;;;;;;;;;;;;;24.96;67.67;101059.97;6176235;23;19912;-82
2023/08/20 04:21:01;;;;;;;;;;;;;;;24.68;68.84;101058.09;6156395;23;19916;-82
2023/08/20 04:23:48;;;;;;;;;;;;;;;24.68;69.69;101058.88;6166251;23;20242;-80
2023/08/20 04:26:32;;;;;;;;;;;;;;;24.82;68.97;101057.22;6154903;23;20251;-82
2023/08/20 04:29:16;;;;;;;;;;;;;;;24.76;68.71;101065.19;6174768;23;19916;-82
2023/08/20 04:32:01;;;;;;;;;;;;;;;24.58;69.31;101061.69;6182198;23;19916;-84
2023/08/20 04:34:47;;;;;;;;;;;;;;;24.59;69.36;101068.81;6201748;23;19916;-84
2023/08/20 04:37:32;;;;;;;;;;;;;;;24.34;69.89;101063.31;6159892;23;19916;-83
2023/08/20 04:40:16;;;;;;;;;;;;;;;24.47;69.40;101075.63;6180055;23;19916;-84
2023/08/20 04:43:01;;;;;;;;;;;;;;;24.39;69.75;101070.47;6202220;23;19916;-83
2023/08/20 04:45:46;;;;;;;;;;;;;;;24.63;68.98;101067.63;6179576;23;19913;-83
2023/08/20 04:48:30;;;;;;;;;;;;;;;24.70;68.69;101075.94;6178840;23;19916;-83
2023/08/20 04:51:15;;;;;;;;;;;;;;;24.67;69.18;101076.75;6180697;23;19912;-83
2023/08/20 04:54:00;;;;;;;;;;;;;;;24.81;68.38;101078.69;6172896;23;19916;-83
2023/08/20 04:56:44;;;;;;;;;;;;;;;24.71;68.95;101088.66;6200125;23;19916;-81
2023/08/20 04:59:29;;;;;;;;;;;;;;;24.50;69.51;101096.25;6177351;23;19912;-84
2023/08/20 05:02:32;;;;;;;;;;;;;;;24.71;69.15;101094.22;6179881;23;19912;-83
2023/08/20 05:05:20;;;;;;;;;;;;;;;24.62;69.83;101096.63;6181394;23;19912;-83
2023/08/20 05:08:04;;;;;;;;;;;;;;;24.98;68.03;101090.97;6182653;23;19912;-83
2023/08/20 05:10:50;;;;;;;;;;;;;;;25.13;67.39;101096.06;6155342;23;20332;-87
2023/08/20 05:13:35;;;;;;;;;;;;;;;25.49;66.15;101099.47;6175961;23;20248;-79
2023/08/20 05:16:19;;;;;;;;;;;;;;;25.57;66.30;101105.78;6154607;23;19916;-81
2023/08/20 05:19:04;;;;;;;;;;;;;;;25.77;65.15;101109.63;6195814;23;19913;-80
2023/08/20 05:21:48;;;;;;;;;;;;;;;25.78;65.10;101099.28;6197528;23;19916;-83
2023/08/20 05:24:34;;;;;;;;;;;;;;;26.02;64.59;101100.28;6154145;23;20336;-79
2023/08/20 05:27:18;;;;;;;;;;;;;;;26.04;64.41;101107.03;6154117;23;19916;-79
2023/08/20 05:30:05;;;;;;;;;;;;;;;26.14;64.04;101102.56;6174164;23;19916;-79
2023/08/20 05:32:50;;;;;;;;;;;;;;;26.23;63.98;101108.47;6195856;23;19916;-82
2023/08/20 05:35:35;;;;;;;;;;;;;;;26.30;63.54;101109.22;6174530;23;19920;-80
2023/08/20 05:38:21;;;;;;;;;;;;;;;26.29;63.93;101102.06;6153961;23;20360;-79
2023/08/20 05:41:07;;;;;;;;;;;;;;;26.46;63.49;101102.28;6175314;23;19912;-80
2023/08/20 05:43:51;;;;;;;;;;;;;;;26.52;63.64;101114.56;6195699;23;19912;-80
2023/08/20 05:46:36;;;;;;;;;;;;;;;26.66;62.94;101114.44;6153930;23;19912;-80
2023/08/20 05:49:20;;;;;;;;;;;;;;;26.60;63.65;101116.88;6173992;23;19916;-82
2023/08/20 05:52:05;;;;;;;;;;;;;;;26.63;63.20;101116.03;6153558;23;20328;-81
2023/08/20 05:54:50;;;;;;;;;;;;;;;26.65;62.88;101118.44;6195788;23;19920;-79
2023/08/20 05:57:37;;;;;;;;;;;;;;;26.72;63.06;101118.31;6153615;23;19912;-79
2023/08/20 06:00:22;;;;;;;;;;;;;;;26.89;62.39;101120.16;6153035;23;19912;-81
2023/08/20 06:03:07;;;;;;;;;;;;;;;26.94;61.58;101119.69;6174454;23;20340;-81
2023/08/20 06:05:53;;;;;;;;;;;;;;;27.06;61.25;101121.97;6153615;23;19912;-81
2023/08/20 06:08:37;;;;;;;;;;;;;;;27.07;61.53;101123.50;6152962;23;19912;-81
2023/08/20 06:11:22;;;;;;;;;;;;;;;27.18;61.29;101126.16;6195365;23;19912;-81
2023/08/20 06:14:07;;;;;;;;;;;;;;;27.27;60.60;101125.69;6187547;23;19912;-80
2023/08/20 06:16:51;;;;;;;;;;;;;;;27.39;60.09;101117.50;6189102;23;19920;-81
2023/08/20 06:19:36;;;;;;;;;;;;;;;27.52;59.85;101126.94;6194849;23;19912;-80
2023/08/20 06:22:21;;;;;;;;;;;;;;;27.58;59.75;101130.06;6173879;23;20260;-81
2023/08/20 06:25:05;;;;;;;;;;;;;;;27.57;59.55;101134.06;6196342;23;19917;-81
2023/08/20 06:27:50;;;;;;;;;;;;;;;27.61;59.57;101134.81;6196287;23;19916;-81
2023/08/20 06:30:34;;;;;;;;;;;;;;;27.68;59.48;101131.13;6152508;23;19912;-81
2023/08/20 06:33:19;;;;;;;;;;;;;;;27.74;59.48;101135.00;6188552;23;19912;-81
2023/08/20 06:36:03;;;;;;;;;;;;;;;27.79;59.30;101129.72;6196008;23;19920;-82
2023/08/20 06:38:48;;;;;;;;;;;;;;;27.84;58.60;101132.03;6195659;23;19912;-80
2023/08/20 06:41:32;;;;;;;;;;;;;;;27.86;58.98;101134.41;6173630;23;20243;-81
2023/08/20 06:44:17;;;;;;;;;;;;;;;27.96;58.65;101130.66;6194703;23;19912;-81
2023/08/20 06:47:01;;;;;;;;;;;;;;;27.99;58.63;101138.19;6196003;23;19916;-80
2023/08/20 06:49:46;;;;;;;;;;;;;;;27.97;58.59;101143.44;6193406;23;20344;-82
2023/08/20 06:52:30;;;;;;;;;;;;;;;27.96;59.01;101139.84;6193847;23;19915;-80
2023/08/20 06:55:14;;;;;;;;;;;;;;;28.07;58.51;101142.47;6194327;23;19920;-81
2023/08/20 06:57:59;;;;;;;;;;;;;;;28.17;58.39;101137.94;6151824;23;19912;-81
2023/08/20 07:00:43;;;;;;;;;;;;;;;28.05;58.75;101130.91;6194006;23;19912;-80
2023/08/20 07:03:28;;;;;;;;;;;;;;;28.18;58.35;101140.31;6189654;23;19913;-80
2023/08/20 07:06:15;;;;;;;;;;;;;;;28.14;58.78;101136.00;6173669;23;19916;-79
2023/08/20 07:08:59;;;;;;;;;;;;;;;28.29;58.04;101146.50;6173437;23;19913;-81
2023/08/20 07:11:44;;;;;;;;;;;;;;;28.31;57.89;101137.69;6195989;23;19913;-81
2023/08/20 07:14:28;;;;;;;;;;;;;;;28.45;56.92;101143.03;6195804;23;19913;-81
2023/08/20 07:17:13;;;;;;;;;;;;;;;28.54;56.63;101146.09;6164307;23;19920;-79
2023/08/20 07:19:57;;;;;;;;;;;;;;;28.45;57.07;101140.22;6152062;23;19912;-79
2023/08/20 07:22:42;;;;;;;;;;;;;;;28.59;56.71;101153.97;6193755;23;19920;-81
2023/08/20 07:25:27;;;;;;;;;;;;;;;28.43;56.81;101140.69;6172447;23;19916;-80
2023/08/20 07:28:12;;;;;;;;;;;;;;;28.58;56.20;101143.22;6194964;23;19920;-80
2023/08/20 07:30:56;;;;;;;;;;;;;;;28.37;57.11;101147.19;6173373;23;19913;-81
2023/08/20 07:33:41;;;;;;;;;;;;;;;28.38;56.42;101146.75;6188393;23;19916;-81
2023/08/20 07:36:25;;;;;;;;;;;;;;;28.60;55.97;101144.34;6151752;23;20252;-81
2023/08/20 07:39:10;;;;;;;;;;;;;;;28.79;55.23;101154.03;6174605;23;19912;-81
2023/08/20 07:41:55;;;;;;;;;;;;;;;28.73;55.29;101150.16;6175576;23;19912;-79
2023/08/20 07:44:40;;;;;;;;;;;;;;;28.75;55.31;101154.09;6172927;23;20248;-82
2023/08/20 07:47:24;;;;;;;;;;;;;;;28.91;54.54;101148.56;6199950;23;19912;-81
2023/08/20 07:50:09;;;;;;;;;;;;;;;28.78;54.85;101155.25;6178115;23;19912;-83
2023/08/20 07:52:53;;;;;;;;;;;;;;;28.66;55.54;101156.63;6201056;23;19912;-82
2023/08/20 07:55:38;;;;;;;;;;;;;;;29.19;53.31;101149.22;6177990;23;19916;-84
2023/08/20 07:58:22;;;;;;;;;;;;;;;29.29;53.05;101151.78;6158043;23;19916;-84
2023/08/20 08:01:07;;;;;;;;;;;;;;;29.48;52.47;101155.03;6157034;23;19916;-83
2023/08/20 08:03:52;;;;;;;;;;;;;;;29.54;51.05;101150.47;6191509;23;19916;-84
2023/08/20 08:06:37;;;;;;;;;;;;;;;29.63;50.15;101159.09;6154815;23;19912;-83
2023/08/20 08:09:26;;;;;;;;;;;;;;;29.29;52.50;101151.78;6155477;23;19916;-82
2023/08/20 08:12:11;;;;;;;;;;;;;;;29.07;53.21;101153.47;6176030;23;20263;-83
2023/08/20 08:14:55;;;;;;;;;;;;;;;29.12;52.39;101152.16;6156222;23;19912;-84
2023/08/20 08:17:40;;;;;;;;;;;;;;;28.98;52.69;101149.66;6201688;23;19912;-82
2023/08/20 08:20:24;;;;;;;;;;;;;;;29.20;52.26;101148.00;6157456;23;19912;-82
2023/08/20 08:23:09;;;;;;;;;;;;;;;29.54;51.17;101145.66;6193323;23;19912;-83
2023/08/20 08:25:54;;;;;;;;;;;;;;;29.60;51.79;101143.94;6151485;23;20252;-79
2023/08/20 08:28:38;;;;;;;;;;;;;;;29.85;50.95;101148.97;6171284;23;19916;-79
2023/08/20 08:31:23;;;;;;;;;;;;;;;29.86;52.55;101155.34;6195625;23;19912;-82
2023/08/20 08:34:08;;;;;;;;;;;;;;;29.97;50.83;101150.31;6192279;23;20336;-77
2023/08/20 08:36:52;;;;;;;;;;;;;;;29.76;56.35;101151.59;6171670;23;19920;-85
2023/08/20 08:39:37;;;;;;;;;;;;;;;29.91;54.18;101144.44;6197986;23;19912;-83
2023/08/20 08:42:23;;;;;;;;;;;;;;;29.98;53.42;101143.47;6176250;23;19916;-87
2023/08/20 08:45:09;;;;;;;;;;;;;;;30.04;52.10;101148.13;6154514;23;19912;-86
2023/08/20 08:47:55;;;;;;;;;;;;;;;30.08;52.07;101145.22;6154847;23;19912;-86
2023/08/20 08:50:39;;;;;;;;;;;;;;;30.13;50.96;101150.28;6153256;23;19916;-84
2023/08/20 08:53:24;;;;;;;;;;;;;;;30.15;50.85;101151.44;6154465;23;19916;-86
2023/08/20 08:56:08;;;;;;;;;;;;;;;30.22;50.14;101144.09;6176522;23;20340;-87
2023/08/20 08:58:54;;;;;;;;;;;;;;;30.34;50.20;101146.16;6197167;23;19913;-90
2023/08/20 09:01:39;;;;;;;;;;;;;;;30.34;51.09;101146.16;6153417;23;19913;-91
2023/08/20 09:04:24;;;;;;;;;;;;;;;30.35;51.51;101145.72;6155242;23;19912;-90
2023/08/20 09:07:13;;;;;;;;;;;;;;;30.37;51.60;101140.47;6156489;23;19912;-91
2023/08/20 09:09:59;;;;;;;;;;;;;;;30.44;50.94;101136.66;6151923;23;20492;-90
2023/08/20 09:12:44;;;;;;;;;;;;;;;30.47;50.47;101139.44;6152323;23;19912;-91
2023/08/20 09:15:33;;;;;;;;;;;;;;;30.54;49.59;101136.41;6152062;23;19916;-91
2023/08/20 09:18:17;;;;;;;;;;;;;;;30.60;49.96;101136.66;6151997;23;19916;-90
2023/08/20 09:21:02;;;;;;;;;;;;;;;30.62;50.14;101134.22;6152203;23;19916;-89
2023/08/20 09:23:47;;;;;;;;;;;;;;;30.65;50.10;101135.34;6152473;23;20252;-89
2023/08/20 09:26:31;;;;;;;;;;;;;;;30.71;50.06;101147.59;6173117;23;20340;-91
2023/08/20 09:29:16;;;;;;;;;;;;;;;30.74;50.07;101141.88;6173027;23;19912;-89
2023/08/20 09:32:02;;;;;;;;;;;;;;;30.76;49.85;101141.44;6152501;23;20248;-91
2023/08/20 09:34:51;;;;;;;;;;;;;;;30.78;50.02;101139.00;6172945;23;19912;-90
2023/08/20 09:37:36;;;;;;;;;;;;;;;30.84;49.77;101148.44;6154389;23;19916;-91
2023/08/20 09:40:21;;;;;;;;;;;;;;;30.89;47.96;101145.88;6154398;23;19912;-90
2023/08/20 09:43:08;;;;;;;;;;;;;;;30.98;47.87;101145.25;6154217;23;19916;-91
2023/08/20 09:45:54;;;;;;;;;;;;;;;31.06;47.74;101146.63;6175343;23;20239;-91
2023/08/20 09:48:41;;;;;;;;;;;;;;;31.15;46.17;101149.56;6174976;23;19912;-90
2023/08/20 09:51:27;;;;;;;;;;;;;;;31.27;46.08;101151.63;6196408;23;19916;-90
2023/08/20 09:54:21;;;;;;;;;;;;;;;31.36;45.20;101151.75;6153738;23;20260;-90
2023/08/20 09:57:07;;;;;;;;;;;;;;;31.36;47.35;101150.97;6152965;23;19920;-91
2023/08/20 09:59:52;;;;;;;;;;;;;;;31.36;47.77;101148.94;6153654;23;20347;-90
2023/08/20 10:02:40;;;;;;;;;;;;;;;31.34;47.67;101151.41;6153520;23;19916;-91
2023/08/20 10:05:25;;;;;;;;;;;;;;;31.37;47.56;101152.53;6195546;23;19912;-91
2023/08/20 10:08:10;;;;;;;;;;;;;;;31.46;46.73;101146.25;6153773;23;19912;-91
2023/08/20 10:10:54;;;;;;;;;;;;;;;31.52;46.37;101144.44;6175109;23;19912;-91
2023/08/20 10:13:39;;;;;;;;;;;;;;;31.57;45.94;101138.31;6153625;23;20244;-91
2023/08/20 10:16:23;;;;;;;;;;;;;;;31.71;45.19;101143.47;6153493;23;19917;-91
2023/08/20 10:19:08;;;;;;;;;;;;;;;31.79;45.38;101147.66;6174460;23;19912;-91
2023/08/20 10:21:53;;;;;;;;;;;;;;;31.84;45.32;101133.00;6174928;23;19912;-91
2023/08/20 10:24:46;;;;;;;;;;;;;;;31.91;45.23;101146.81;6153712;23;19912;-89
2023/08/20 10:27:32;;;;;;;;;;;;;;;32.02;43.90;101143.66;6153960;23;19916;-89
2023/08/20 10:30:17;;;;;;;;;;;;;;;32.07;44.60;101134.66;6174624;23;20332;-91
2023/08/20 10:33:03;;;;;;;;;;;;;;;32.16;43.94;101135.56;6153128;23;19916;-91
2023/08/20 10:35:47;;;;;;;;;;;;;;;32.27;43.95;101138.00;6153388;23;19917;-91
2023/08/20 10:38:35;;;;;;;;;;;;;;;32.32;44.51;101133.84;6152966;23;19916;-91
2023/08/20 10:41:24;;;;;;;;;;;;;;;32.27;44.93;101138.00;6152991;23;20341;-91
2023/08/20 10:44:09;;;;;;;;;;;;;;;32.23;44.63;101135.34;6173938;23;19916;-91
2023/08/20 10:46:53;;;;;;;;;;;;;;;32.28;44.76;101130.34;6195069;23;19912;-91
2023/08/20 10:49:37;;;;;;;;;;;;;;;32.22;44.60;101125.31;6173487;23;19912;-90
2023/08/20 10:52:22;;;;;;;;;;;;;;;32.28;44.47;101130.34;6172836;23;20344;-90
2023/08/20 10:55:10;;;;;;;;;;;;;;;32.33;44.57;101129.78;6153388;23;19912;-90
2023/08/20 10:57:57;;;;;;;;;;;;;;;32.34;44.34;101114.47;6174069;23;20248;-90
2023/08/20 11:00:42;;;;;;;;;;;;;;;32.37;44.43;101113.53;6153503;23;19916;-90
2023/08/20 11:03:27;;;;;;;;;;;;;;;32.46;44.20;101116.47;6153019;23;19913;-89
2023/08/20 11:06:11;;;;;;;;;;;;;;;32.55;43.63;101103.25;6174081;23;19912;-90
2023/08/20 11:08:55;;;;;;;;;;;;;;;32.64;43.75;101105.38;6174340;23;19912;-90
2023/08/20 11:11:40;;;;;;;;;;;;;;;32.57;44.05;101100.72;6174546;23;19912;-90
2023/08/20 11:14:24;;;;;;;;;;;;;;;32.56;44.28;101099.16;6174135;23;19912;-90
2023/08/20 11:17:08;;;;;;;;;;;;;;;32.76;42.32;101098.88;6195466;23;19916;-89
2023/08/20 11:19:53;;;;;;;;;;;;;;;32.74;43.14;101092.91;6195580;23;19912;-90
2023/08/20 11:22:38;;;;;;;;;;;;;;;32.80;43.30;101087.47;6174745;23;19912;-90
2023/08/20 11:25:22;;;;;;;;;;;;;;;32.88;42.46;101089.56;6153258;23;19912;-90
2023/08/20 11:28:07;;;;;;;;;;;;;;;32.97;42.41;101091.63;6195175;23;19912;-90
2023/08/20 11:30:52;;;;;;;;;;;;;;;33.01;42.35;101087.47;6174561;23;19915;-90
2023/08/20 11:33:37;;;;;;;;;;;;;;;33.04;42.50;101082.94;6188993;23;19912;-90
2023/08/20 11:36:22;;;;;;;;;;;;;;;33.03;42.42;101087.78;6154650;23;20272;-90
2023/08/20 11:39:08;;;;;;;;;;;;;;;33.22;40.71;101085.84;6153603;23;20252;-89
2023/08/20 11:41:53;;;;;;;;;;;;;;;33.35;41.20;101088.59;6174140;23;19912;-90
2023/08/20 11:44:46;;;;;;;;;;;;;;;33.32;41.55;101079.00;6153294;23;19912;-90
2023/08/20 11:47:38;;;;;;;;;;;;;;;33.36;41.17;101078.88;6153747;23;20379;-88
2023/08/20 11:50:22;;;;;;;;;;;;;;;33.35;41.82;101080.91;6195279;23;20516;-90
2023/08/20 11:53:07;;;;;;;;;;;;;;;33.59;39.42;101080.38;6152910;23;19912;-90
2023/08/20 11:55:52;;;;;;;;;;;;;;;34.03;38.42;101078.94;6153056;23;19916;-90
2023/08/20 11:58:36;;;;;;;;;;;;;;;34.04;38.74;101074.06;6173540;23;19912;-90
2023/08/20 12:01:21;;;;;;;;;;;;;;;34.02;38.52;101073.75;6174355;23;19912;-90
2023/08/20 12:04:06;;;;;;;;;;;;;;;34.01;39.50;101075.00;6152729;23;19912;-91
2023/08/20 12:07:02;;;;;;;;;;;;;;;33.91;39.86;101077.03;6194803;23;19912;-90
2023/08/20 12:09:48;;;;;;;;;;;;;;;33.85;40.31;101073.25;6152779;23;19912;-90
2023/08/20 12:12:33;;;;;;;;;;;;;;;33.74;40.87;101079.34;6193192;23;19912;-90
2023/08/20 12:15:19;;;;;;;;;;;;;;;33.71;40.91;101077.47;6152834;23;19917;-90
2023/08/20 12:18:04;;;;;;;;;;;;;;;33.79;40.25;101070.25;6173874;23;19916;-90
2023/08/20 12:20:48;;;;;;;;;;;;;;;33.93;38.77;101064.00;6173998;23;19912;-90
2023/08/20 12:23:33;;;;;;;;;;;;;;;33.96;39.27;101067.94;6152843;23;19912;-90
2023/08/20 12:26:18;;;;;;;;;;;;;;;34.08;38.31;101064.22;6173807;23;19912;-90
2023/08/20 12:29:02;;;;;;;;;;;;;;;34.16;38.90;101065.47;6152677;23;19912;-90
2023/08/20 12:31:47;;;;;;;;;;;;;;;34.19;38.71;101067.38;6173474;23;19912;-90
2023/08/20 12:34:31;;;;;;;;;;;;;;;34.15;39.32;101065.94;6194656;23;19913;-90
2023/08/20 12:37:16;;;;;;;;;;;;;;;34.18;39.36;101059.34;6173514;23;19917;-90
2023/08/20 12:40:00;;;;;;;;;;;;;;;34.22;38.74;101063.63;6194548;23;19912;-90
2023/08/20 12:42:45;;;;;;;;;;;;;;;34.33;38.90;101063.94;6173398;23;19912;-90
2023/08/20 12:45:29;;;;;;;;;;;;;;;34.49;37.33;101059.22;6173150;23;19912;-90
2023/08/20 12:48:14;;;;;;;;;;;;;;;34.51;38.38;101059.50;6172993;23;20247;-90
2023/08/20 12:50:58;;;;;;;;;;;;;;;34.45;38.61;101056.53;6173235;23;19912;-90
2023/08/20 12:53:43;;;;;;;;;;;;;;;34.60;37.74;101053.84;6166340;23;19916;-89
2023/08/20 12:56:27;;;;;;;;;;;;;;;34.68;37.43;101044.63;6194054;23;19916;-90
2023/08/20 12:59:12;;;;;;;;;;;;;;;34.79;37.40;101035.66;6172969;23;19912;-90
2023/08/20 13:01:57;;;;;;;;;;;;;;;35.01;37.30;101038.22;6152269;23;19912;-90
2023/08/20 13:04:42;;;;;;;;;;;;;;;34.97;37.26;101037.63;6152186;23;19913;-90
2023/08/20 13:07:27;;;;;;;;;;;;;;;35.08;36.97;101032.25;6173135;23;19912;-90
2023/08/20 13:10:12;;;;;;;;;;;;;;;35.10;36.14;101035.41;6195527;23;19912;-90
2023/08/20 13:13:00;;;;;;;;;;;;;;;35.34;36.22;101033.44;6174927;23;19912;-90
2023/08/20 13:15:45;;;;;;;;;;;;;;;35.33;35.47;101029.03;6153648;23;19912;-90
2023/08/20 13:18:30;;;;;;;;;;;;;;;35.42;35.29;101028.97;6175075;23;19916;-90
2023/08/20 13:21:14;;;;;;;;;;;;;;;35.54;35.03;101022.31;6153970;23;19912;-90
2023/08/20 13:23:59;;;;;;;;;;;;;;;35.40;35.96;101014.53;6166954;23;19912;-90
2023/08/20 13:26:44;;;;;;;;;;;;;;;35.34;36.33;101010.78;6195686;23;20348;-90
2023/08/20 13:29:28;;;;;;;;;;;;;;;35.37;35.82;101015.47;6153593;23;19912;-90
2023/08/20 13:32:13;;;;;;;;;;;;;;;35.33;36.16;101017.72;6153728;23;19916;-90
2023/08/20 13:34:57;;;;;;;;;;;;;;;35.16;36.40;101010.84;6195721;23;19916;-91
2023/08/20 13:37:42;;;;;;;;;;;;;;;35.25;35.58;101015.72;6174500;23;19916;-90
2023/08/20 13:40:26;;;;;;;;;;;;;;;35.43;35.00;101012.78;6153579;23;19912;-90
2023/08/20 13:43:11;;;;;;;;;;;;;;;35.53;34.83;101008.63;6153716;23;19912;-90
2023/08/20 13:45:55;;;;;;;;;;;;;;;35.39;35.55;101003.69;6174493;23;19913;-90
2023/08/20 13:48:40;;;;;;;;;;;;;;;35.12;36.83;100998.94;6174271;23;19912;-91
2023/08/20 13:51:25;;;;;;;;;;;;;;;35.24;35.83;101009.28;6174510;23;19913;-90
2023/08/20 13:54:09;;;;;;;;;;;;;;;35.44;34.82;101006.66;6153549;23;20248;-90
2023/08/20 13:56:54;;;;;;;;;;;;;;;35.46;35.31;101006.94;6174487;23;19916;-90
2023/08/20 13:59:38;;;;;;;;;;;;;;;35.29;35.92;101008.63;6153389;23;19912;-90
2023/08/20 14:02:23;;;;;;;;;;;;;;;35.36;35.03;101008.25;6173258;23;19916;-90
2023/08/20 14:05:08;;;;;;;;;;;;;;;35.46;35.24;101004.09;6153825;23;19912;-90
2023/08/20 14:07:52;;;;;;;;;;;;;;;35.55;34.71;101004.06;6174466;23;19916;-89